createdAt,value
2023-01-28T00:01:44.634Z,5.10
2023-01-28T00:04:12.777Z,5.15
2023-01-28T00:06:40.615Z,5.07
2023-01-28T00:09:08.800Z,5.17
2023-01-28T00:11:37.055Z,5.10
2023-01-28T00:14:05.065Z,5.07
2023-01-28T00:16:33.116Z,5.11
2023-01-28T00:19:00.681Z,5.24
2023-01-28T00:21:28.412Z,5.23
2023-01-28T00:23:57.030Z,5.39
2023-01-28T00:26:25.436Z,5.27
2023-01-28T00:28:53.177Z,5.21
2023-01-28T00:31:23.909Z,5.26
2023-01-28T00:33:52.801Z,5.30
2023-01-28T00:36:23.048Z,5.36
2023-01-28T00:38:52.589Z,5.42
2023-01-28T00:41:23.776Z,5.43
2023-01-28T00:43:53.505Z,5.40
2023-01-28T00:46:22.986Z,5.55
2023-01-28T00:48:50.728Z,5.48
2023-01-28T00:51:20.716Z,5.43
2023-01-28T00:53:50.426Z,5.45
2023-01-28T00:56:19.613Z,5.42
2023-01-28T00:58:48.386Z,5.54
2023-01-28T01:01:21.718Z,5.75
2023-01-28T01:03:57.600Z,5.73
2023-01-28T01:06:25.904Z,5.78
2023-01-28T01:08:53.383Z,5.77
2023-01-28T01:11:21.245Z,5.76
2023-01-28T01:13:54.956Z,5.77
2023-01-28T01:16:24.931Z,5.82
2023-01-28T01:18:54.297Z,5.83
2023-01-28T01:21:25.127Z,5.75
2023-01-28T01:23:53.925Z,5.77
2023-01-28T01:26:23.589Z,5.76
2023-01-28T01:28:52.460Z,5.90
2023-01-28T01:31:21.982Z,5.81
2023-01-28T01:33:52.181Z,5.75
2023-01-28T01:36:22.252Z,5.65
2023-01-28T01:38:55.395Z,5.63
2023-01-28T01:41:29.536Z,5.50
2023-01-28T01:44:02.979Z,5.38
2023-01-28T01:46:31.285Z,5.37
2023-01-28T01:49:06.551Z,5.38
2023-01-28T01:51:36.557Z,5.48
2023-01-28T01:54:05.651Z,5.39
2023-01-28T01:56:38.665Z,5.46
2023-01-28T01:59:12.014Z,5.47
2023-01-28T02:01:41.540Z,5.67
2023-01-28T02:04:17.453Z,5.83
2023-01-28T02:06:48.529Z,5.75
2023-01-28T02:09:32.504Z,5.75
2023-01-28T02:12:11.310Z,5.69
2023-01-28T02:14:44.247Z,5.75
2023-01-28T02:17:12.531Z,5.63
2023-01-28T02:20:07.991Z,5.65
2023-01-28T02:22:39.086Z,5.70
2023-01-28T02:25:34.140Z,5.59
2023-01-28T02:28:27.354Z,5.60
2023-01-28T02:31:04.743Z,5.82
2023-01-28T02:33:50.369Z,5.93
2023-01-28T02:36:41.912Z,6.06
2023-01-28T02:39:19.007Z,6.07
2023-01-28T02:41:52.164Z,5.89
2023-01-28T02:44:20.421Z,5.79
2023-01-28T02:47:06.593Z,5.97
2023-01-28T02:49:41.314Z,5.82
2023-01-28T02:53:20.987Z,5.70
2023-01-28T02:56:29.546Z,5.47
2023-01-28T02:59:32.359Z,5.40
2023-01-28T03:02:20.534Z,5.43
2023-01-28T03:04:57.121Z,5.09
2023-01-28T03:07:30.301Z,4.85
2023-01-28T03:10:04.368Z,4.74
2023-01-28T03:12:54.194Z,4.90
2023-01-28T03:16:01.936Z,4.99
2023-01-28T03:19:00.124Z,4.98
2023-01-28T03:21:53.438Z,5.03
2023-01-28T03:24:44.834Z,4.98
2023-01-28T03:27:37.152Z,5.08
2023-01-28T03:30:33.442Z,4.96
2023-01-28T03:33:25.209Z,4.73
2023-01-28T03:36:12.263Z,4.73
2023-01-28T03:38:42.323Z,4.69
2023-01-28T03:41:12.919Z,4.84
2023-01-28T03:43:41.872Z,4.93
2023-01-28T03:46:10.117Z,4.94
2023-01-28T03:48:37.750Z,4.80
2023-01-28T03:51:08.109Z,4.72
2023-01-28T03:53:36.465Z,4.85
2023-01-28T03:56:04.694Z,4.83
2023-01-28T03:58:51.921Z,4.81
2023-01-28T04:01:20.846Z,4.77
2023-01-28T04:03:49.171Z,4.83
2023-01-28T04:06:24.321Z,4.74
2023-01-28T04:09:07.635Z,4.60
2023-01-28T04:11:54.484Z,4.65
2023-01-28T04:14:27.615Z,4.64
2023-01-28T04:17:03.988Z,4.78
2023-01-28T04:19:37.368Z,4.63
2023-01-28T04:22:10.666Z,4.53
2023-01-28T04:24:39.772Z,4.59
2023-01-28T04:27:08.351Z,4.50
2023-01-28T04:29:36.124Z,4.64
2023-01-28T04:32:22.669Z,4.64
2023-01-28T04:35:04.249Z,4.36
2023-01-28T04:37:58.998Z,4.36
2023-01-28T04:40:41.119Z,4.30
2023-01-28T04:43:20.816Z,4.35
2023-01-28T04:45:51.599Z,4.25
2023-01-28T04:48:42.911Z,4.18
2023-01-28T04:51:42.991Z,4.04
2023-01-28T04:54:33.213Z,4.02
2023-01-28T04:57:03.619Z,4.19
2023-01-28T04:59:32.597Z,4.25
2023-01-28T05:02:00.739Z,4.23
2023-01-28T05:04:28.841Z,4.16
2023-01-28T05:06:58.541Z,4.06
2023-01-28T05:09:31.512Z,3.94
2023-01-28T05:11:59.104Z,3.81
2023-01-28T05:14:26.703Z,3.94
2023-01-28T05:17:10.027Z,3.95
2023-01-28T05:19:37.643Z,3.88
2023-01-28T05:22:09.688Z,3.73
2023-01-28T05:24:42.477Z,3.82
2023-01-28T05:27:10.255Z,3.83
2023-01-28T05:29:37.823Z,3.69
2023-01-28T05:32:05.754Z,3.37
2023-01-28T05:34:33.995Z,3.44
2023-01-28T05:37:08.176Z,3.32
2023-01-28T05:39:38.007Z,3.29
2023-01-28T05:42:06.231Z,3.45
2023-01-28T05:44:37.975Z,3.43
2023-01-28T05:47:24.405Z,3.29
2023-01-28T05:49:57.540Z,3.22
2023-01-28T05:52:43.845Z,3.36
2023-01-28T05:55:21.009Z,3.28
2023-01-28T05:57:49.812Z,3.07
2023-01-28T06:00:20.000Z,3.19
2023-01-28T06:02:47.491Z,3.17
2023-01-28T06:05:17.002Z,3.07
2023-01-28T06:07:45.801Z,3.09
2023-01-28T06:10:18.124Z,3.09
2023-01-28T06:12:46.387Z,3.10
2023-01-28T06:15:33.474Z,3.08
2023-01-28T06:18:03.743Z,3.12
2023-01-28T06:20:34.720Z,3.82
2023-01-28T06:23:02.519Z,4.12
2023-01-28T06:25:30.114Z,3.87
2023-01-28T06:28:01.689Z,4.10
2023-01-28T06:30:29.234Z,4.27
2023-01-28T06:32:57.472Z,4.48
2023-01-28T06:35:25.115Z,4.42
2023-01-28T06:37:53.779Z,4.68
2023-01-28T06:40:23.085Z,4.37
2023-01-28T06:42:50.709Z,4.05
2023-01-28T06:45:19.216Z,4.02
2023-01-28T06:47:46.771Z,3.80
2023-01-28T06:50:15.051Z,3.84
2023-01-28T06:52:42.964Z,3.67
2023-01-28T06:55:10.730Z,3.57
2023-01-28T06:57:42.629Z,3.55
2023-01-28T07:00:13.532Z,3.56
2023-01-28T07:02:42.233Z,3.48
2023-01-28T07:05:10.346Z,3.59
2023-01-28T07:07:41.426Z,3.56
2023-01-28T07:10:11.555Z,3.43
2023-01-28T07:12:39.851Z,3.61
2023-01-28T07:15:08.654Z,3.59
2023-01-28T07:17:36.333Z,3.66
2023-01-28T07:20:05.395Z,3.70
2023-01-28T07:22:33.296Z,3.68
2023-01-28T07:25:01.437Z,3.72
2023-01-28T07:27:29.435Z,3.93
2023-01-28T07:29:57.415Z,4.13
2023-01-28T07:32:27.487Z,4.24
2023-01-28T07:34:55.124Z,4.31
2023-01-28T07:37:22.966Z,4.37
2023-01-28T07:39:51.086Z,4.20
2023-01-28T07:42:18.639Z,4.34
2023-01-28T07:44:47.964Z,4.21
2023-01-28T07:47:15.969Z,4.54
2023-01-28T07:49:44.160Z,4.65
2023-01-28T07:52:11.837Z,4.57
2023-01-28T07:54:39.429Z,4.45
2023-01-28T07:57:09.977Z,4.48
2023-01-28T07:59:38.352Z,4.73
2023-01-28T08:02:06.188Z,4.95
2023-01-28T08:04:33.868Z,5.15
2023-01-28T08:07:01.419Z,5.41
2023-01-28T08:09:29.476Z,5.41
2023-01-28T08:11:57.476Z,5.74
2023-01-28T08:14:25.311Z,5.53
2023-01-28T08:16:52.882Z,5.57
2023-01-28T08:19:21.944Z,5.81
2023-01-28T08:21:49.554Z,5.84
2023-01-28T08:24:17.930Z,5.76
2023-01-28T08:26:48.913Z,5.97
2023-01-28T08:29:16.774Z,5.82
2023-01-28T08:31:44.352Z,5.88
2023-01-28T08:34:12.264Z,5.95
2023-01-28T08:36:40.325Z,6.21
2023-01-28T08:39:07.903Z,6.10
2023-01-28T08:41:35.871Z,6.20
2023-01-28T08:44:03.636Z,6.25
2023-01-28T08:46:31.761Z,6.40
2023-01-28T08:48:59.764Z,5.85
2023-01-28T08:51:27.720Z,6.34
2023-01-28T08:53:55.258Z,6.75
2023-01-28T08:56:23.770Z,6.16
2023-01-28T08:58:51.795Z,6.48
2023-01-28T09:01:19.481Z,6.55
2023-01-28T09:03:47.069Z,6.46
2023-01-28T09:06:14.791Z,6.72
2023-01-28T09:08:42.383Z,7.32
2023-01-28T09:11:09.920Z,8.22
2023-01-28T09:13:37.779Z,8.15
2023-01-28T09:16:06.492Z,9.26
2023-01-28T09:18:34.132Z,9.89
2023-01-28T09:21:05.667Z,10.10
2023-01-28T09:23:37.451Z,10.59
2023-01-28T09:26:06.478Z,10.50
2023-01-28T09:28:34.081Z,11.46
2023-01-28T09:31:12.870Z,11.17
2023-01-28T09:33:41.154Z,11.67
2023-01-28T09:36:11.851Z,12.72
2023-01-28T09:38:39.582Z,12.64
2023-01-28T09:41:28.598Z,12.16
2023-01-28T09:44:17.801Z,11.86
2023-01-28T09:46:45.878Z,12.26
2023-01-28T09:49:49.375Z,12.67
2023-01-28T09:52:21.016Z,12.66
2023-01-28T09:54:56.359Z,11.94
2023-01-28T09:57:26.182Z,12.22
2023-01-28T09:59:54.142Z,12.70
2023-01-28T10:02:49.771Z,12.45
2023-01-28T10:05:20.201Z,12.54
2023-01-28T10:08:07.350Z,12.59
2023-01-28T10:10:42.174Z,13.24
2023-01-28T10:13:24.220Z,12.46
2023-01-28T10:15:58.943Z,12.33
2023-01-28T10:18:50.889Z,12.39
2023-01-28T10:21:25.753Z,12.52
2023-01-28T10:24:01.635Z,13.08
2023-01-28T10:26:49.442Z,13.28
2023-01-28T10:29:24.302Z,13.58
2023-01-28T10:32:00.288Z,12.26
2023-01-28T10:34:28.528Z,13.49
2023-01-28T10:36:57.766Z,13.26
2023-01-28T10:39:26.675Z,13.09
2023-01-28T10:41:58.676Z,13.70
2023-01-28T10:44:42.071Z,14.17
2023-01-28T10:47:20.485Z,14.15
2023-01-28T10:49:53.366Z,13.50
2023-01-28T10:52:21.429Z,13.77
2023-01-28T10:54:59.900Z,13.61
2023-01-28T10:57:28.276Z,13.47
2023-01-28T10:59:56.528Z,13.97
2023-01-28T11:02:35.965Z,14.10
2023-01-28T11:05:21.836Z,13.89
2023-01-28T11:07:50.203Z,13.86
2023-01-28T11:10:37.893Z,13.42
2023-01-28T11:13:14.874Z,14.18
2023-01-28T11:15:50.177Z,14.34
2023-01-28T11:18:30.361Z,13.49
2023-01-28T11:21:16.832Z,13.52
2023-01-28T11:24:02.598Z,12.99
2023-01-28T11:26:37.037Z,13.85
2023-01-28T11:29:05.411Z,13.95
2023-01-28T11:31:42.704Z,13.67
2023-01-28T11:34:17.715Z,14.14
2023-01-28T11:36:54.416Z,13.98
2023-01-28T11:39:28.662Z,14.10
2023-01-28T11:42:11.764Z,14.10
2023-01-28T11:44:40.665Z,14.19
2023-01-28T11:47:25.204Z,14.51
2023-01-28T11:50:11.455Z,14.27
2023-01-28T11:53:06.038Z,14.72
2023-01-28T11:55:46.217Z,14.90
2023-01-28T11:58:29.624Z,15.64
2023-01-28T12:01:13.213Z,15.00
2023-01-28T12:04:03.969Z,15.27
2023-01-28T12:06:41.002Z,14.14
2023-01-28T12:09:35.308Z,15.34
2023-01-28T12:12:12.068Z,15.48
2023-01-28T12:15:01.066Z,13.52
2023-01-28T12:17:53.580Z,14.22
2023-01-28T12:20:52.073Z,15.32
2023-01-28T12:23:41.794Z,13.81
2023-01-28T12:26:37.135Z,12.46
2023-01-28T12:29:35.861Z,12.84
2023-01-28T12:32:30.872Z,12.78
2023-01-28T12:35:07.994Z,13.20
2023-01-28T12:38:00.157Z,13.97
2023-01-28T12:40:46.821Z,13.97
2023-01-28T12:43:27.490Z,13.56
2023-01-28T12:46:03.600Z,12.20
2023-01-28T12:48:41.239Z,13.39
2023-01-28T12:51:18.854Z,12.93
2023-01-28T12:54:02.592Z,11.87
2023-01-28T12:56:35.648Z,13.28
2023-01-28T12:59:15.524Z,12.62
2023-01-28T13:02:01.597Z,14.72
2023-01-28T13:04:40.174Z,15.61
2023-01-28T13:07:19.380Z,15.60
2023-01-28T13:09:55.374Z,15.52
2023-01-28T13:12:23.868Z,17.04
2023-01-28T13:14:54.262Z,14.10
2023-01-28T13:17:29.052Z,13.87
2023-01-28T13:19:58.044Z,13.39
2023-01-28T13:22:36.016Z,13.60
2023-01-28T13:25:27.179Z,12.20
2023-01-28T13:28:04.388Z,12.73
2023-01-28T13:30:49.362Z,13.77
2023-01-28T13:33:30.522Z,15.42
2023-01-28T13:36:07.681Z,16.58
2023-01-28T13:38:36.436Z,15.02
2023-01-28T13:41:07.695Z,13.06
2023-01-28T13:43:38.704Z,12.15
2023-01-28T13:46:10.490Z,11.00
2023-01-28T13:48:52.119Z,11.64
2023-01-28T13:51:35.624Z,12.39
2023-01-28T13:54:12.693Z,11.95
2023-01-28T13:57:03.476Z,11.92
2023-01-28T13:59:44.407Z,11.78
2023-01-28T14:02:30.671Z,12.45
2023-01-28T14:05:22.440Z,12.80
2023-01-28T14:08:08.525Z,13.13
2023-01-28T14:10:39.079Z,14.24
2023-01-28T14:13:28.203Z,16.67
2023-01-28T14:16:12.952Z,18.69
2023-01-28T14:18:45.756Z,20.22
2023-01-28T14:21:17.387Z,21.76
2023-01-28T14:23:48.763Z,22.46
2023-01-28T14:26:43.222Z,22.26
2023-01-28T14:29:10.893Z,22.37
2023-01-28T14:31:39.830Z,22.79
2023-01-28T14:34:28.963Z,22.94
2023-01-28T14:37:08.314Z,21.78
2023-01-28T14:39:44.864Z,22.22
2023-01-28T14:42:49.593Z,22.85
2023-01-28T14:45:17.867Z,20.89
2023-01-28T14:47:51.091Z,20.77
2023-01-28T14:50:39.810Z,20.81
2023-01-28T14:53:43.974Z,18.76
2023-01-28T14:56:36.494Z,18.65
2023-01-28T14:59:38.086Z,17.85
2023-01-28T15:02:42.958Z,18.51
2023-01-28T15:05:20.116Z,18.61
2023-01-28T15:07:49.206Z,18.83
2023-01-28T15:10:18.891Z,18.27
2023-01-28T15:12:54.556Z,16.97
2023-01-28T15:15:34.905Z,13.89
2023-01-28T15:18:08.467Z,12.32
2023-01-28T15:20:36.261Z,11.50
2023-01-28T15:23:07.594Z,10.68
2023-01-28T15:25:35.712Z,10.94
2023-01-28T15:28:03.686Z,10.68
2023-01-28T15:30:32.680Z,10.51
2023-01-28T15:33:15.183Z,10.24
2023-01-28T15:35:54.503Z,10.07
2023-01-28T15:38:23.343Z,9.92
2023-01-28T15:41:02.396Z,10.01
2023-01-28T15:43:36.630Z,9.98
2023-01-28T15:46:11.614Z,9.73
2023-01-28T15:48:44.258Z,9.69
2023-01-28T15:51:25.745Z,9.67
2023-01-28T15:53:58.297Z,9.73
2023-01-28T15:56:29.276Z,9.61
2023-01-28T15:59:08.649Z,9.32
2023-01-28T16:01:36.821Z,9.26
2023-01-28T16:04:09.639Z,9.19
2023-01-28T16:06:39.758Z,9.16
2023-01-28T16:09:28.195Z,9.14
2023-01-28T16:12:04.210Z,8.95
2023-01-28T16:14:40.676Z,8.85
2023-01-28T16:17:09.655Z,8.62
2023-01-28T16:19:41.735Z,8.64
2023-01-28T16:22:23.309Z,8.53
2023-01-28T16:24:53.272Z,8.51
2023-01-28T16:27:33.472Z,8.43
2023-01-28T16:30:01.658Z,8.23
2023-01-28T16:32:37.830Z,8.15
2023-01-28T16:35:18.215Z,8.01
2023-01-28T16:37:47.699Z,7.92
2023-01-28T16:40:20.857Z,7.92
2023-01-28T16:42:49.080Z,7.81
2023-01-28T16:45:23.291Z,7.77
2023-01-28T16:47:52.145Z,7.54
2023-01-28T16:50:22.034Z,7.41
2023-01-28T16:52:51.652Z,7.40
2023-01-28T16:55:21.379Z,7.34
2023-01-28T16:57:53.130Z,7.32
2023-01-28T17:00:26.044Z,7.18
2023-01-28T17:02:54.604Z,7.06
2023-01-28T17:05:23.293Z,7.09
2023-01-28T17:07:51.131Z,7.00
2023-01-28T17:10:20.581Z,6.97
2023-01-28T17:12:48.960Z,6.93
2023-01-28T17:15:17.151Z,7.04
2023-01-28T17:17:49.409Z,7.07
2023-01-28T17:20:17.443Z,6.83
2023-01-28T17:22:45.663Z,6.74
2023-01-28T17:25:14.866Z,6.84
2023-01-28T17:27:43.027Z,6.79
2023-01-28T17:30:11.291Z,6.74
2023-01-28T17:32:39.305Z,6.62
2023-01-28T17:35:07.518Z,6.60
2023-01-28T17:37:38.374Z,6.59
2023-01-28T17:40:06.602Z,6.67
2023-01-28T17:42:34.154Z,6.68
2023-01-28T17:45:03.291Z,6.65
2023-01-28T17:47:31.907Z,6.60
2023-01-28T17:50:00.536Z,6.50
2023-01-28T17:52:28.241Z,6.61
2023-01-28T17:54:55.872Z,6.61
2023-01-28T17:57:23.495Z,6.54
2023-01-28T17:59:51.076Z,6.75
2023-01-28T18:02:19.052Z,6.55
2023-01-28T18:04:46.725Z,6.44
2023-01-28T18:07:14.726Z,6.41
2023-01-28T18:09:47.518Z,6.30
2023-01-28T18:12:16.613Z,6.26
2023-01-28T18:14:44.230Z,6.16
2023-01-28T18:17:11.941Z,6.04
2023-01-28T18:19:39.855Z,6.00
2023-01-28T18:22:08.670Z,6.19
2023-01-28T18:24:36.465Z,6.13
2023-01-28T18:27:04.277Z,6.10
2023-01-28T18:29:32.065Z,5.93
2023-01-28T18:31:59.796Z,5.93
2023-01-28T18:34:31.570Z,5.93
2023-01-28T18:36:59.364Z,5.99
2023-01-28T18:39:30.358Z,6.07
2023-01-28T18:41:59.121Z,6.13
2023-01-28T18:44:30.194Z,6.02
2023-01-28T18:46:57.953Z,5.91
2023-01-28T18:49:26.009Z,5.86
2023-01-28T18:51:54.175Z,5.91
2023-01-28T18:54:23.211Z,5.85
2023-01-28T18:56:51.315Z,5.66
2023-01-28T18:59:19.100Z,5.56
2023-01-28T19:01:48.020Z,5.50
2023-01-28T19:04:16.681Z,5.40
2023-01-28T19:06:45.291Z,5.37
2023-01-28T19:09:14.756Z,5.39
2023-01-28T19:11:43.114Z,5.52
2023-01-28T19:14:14.394Z,5.53
2023-01-28T19:16:42.813Z,5.57
2023-01-28T19:19:11.100Z,5.53
2023-01-28T19:21:38.728Z,5.57
2023-01-28T19:24:09.799Z,5.49
2023-01-28T19:26:38.159Z,5.25
2023-01-28T19:29:11.023Z,5.32
2023-01-28T19:31:39.987Z,5.18
2023-01-28T19:34:13.082Z,5.19
2023-01-28T19:36:42.323Z,5.15
2023-01-28T19:39:12.144Z,5.18
2023-01-28T19:41:40.271Z,5.17
2023-01-28T19:44:08.679Z,5.14
2023-01-28T19:46:36.580Z,4.83
2023-01-28T19:49:06.536Z,4.80
2023-01-28T19:51:34.853Z,4.86
2023-01-28T19:54:02.808Z,4.77
2023-01-28T19:56:30.668Z,4.76
2023-01-28T19:58:58.238Z,4.72
2023-01-28T20:01:30.136Z,4.80
2023-01-28T20:04:00.177Z,4.83
2023-01-28T20:06:30.450Z,4.77
2023-01-28T20:09:07.820Z,4.84
2023-01-28T20:11:36.033Z,4.67
2023-01-28T20:14:04.064Z,4.53
2023-01-28T20:16:33.970Z,4.63
2023-01-28T20:19:08.337Z,4.51
2023-01-28T20:21:37.179Z,4.57
2023-01-28T20:24:06.648Z,4.64
2023-01-28T20:26:37.480Z,4.44
2023-01-28T20:29:11.395Z,4.49
2023-01-28T20:31:40.853Z,4.28
2023-01-28T20:34:16.674Z,4.29
2023-01-28T20:36:44.833Z,4.29
2023-01-28T20:39:13.666Z,4.40
2023-01-28T20:41:41.212Z,4.34
2023-01-28T20:44:09.468Z,4.26
2023-01-28T20:46:38.877Z,4.19
2023-01-28T20:49:07.136Z,4.25
2023-01-28T20:51:35.939Z,4.25
2023-01-28T20:54:04.397Z,4.22
2023-01-28T20:56:32.167Z,4.07
2023-01-28T20:59:04.689Z,4.07
2023-01-28T21:01:35.310Z,4.05
2023-01-28T21:04:10.560Z,3.94
2023-01-28T21:06:40.111Z,4.09
2023-01-28T21:09:08.256Z,4.11
2023-01-28T21:11:36.528Z,3.98
2023-01-28T21:14:04.219Z,4.03
2023-01-28T21:16:32.295Z,4.00
2023-01-28T21:19:00.048Z,3.91
2023-01-28T21:21:29.297Z,3.89
2023-01-28T21:23:59.988Z,3.81
2023-01-28T21:26:28.243Z,3.89
2023-01-28T21:28:56.362Z,3.86
2023-01-28T21:31:25.779Z,3.99
2023-01-28T21:33:56.107Z,4.16
2023-01-28T21:36:25.309Z,4.06
2023-01-28T21:38:54.966Z,3.96
2023-01-28T21:41:22.756Z,3.95
2023-01-28T21:43:54.245Z,3.88
2023-01-28T21:46:32.938Z,3.73
2023-01-28T21:49:03.388Z,3.86
2023-01-28T21:51:46.048Z,3.84
2023-01-28T21:54:19.273Z,3.86
2023-01-28T21:56:49.508Z,3.88
2023-01-28T21:59:30.856Z,3.67
2023-01-28T22:02:07.457Z,3.68
2023-01-28T22:04:38.190Z,3.60
2023-01-28T22:07:09.541Z,3.51
2023-01-28T22:09:38.074Z,3.79
2023-01-28T22:12:10.103Z,3.88
2023-01-28T22:14:39.440Z,3.76
2023-01-28T22:17:09.192Z,3.81
2023-01-28T22:19:37.915Z,3.84
2023-01-28T22:22:05.995Z,3.64
2023-01-28T22:24:34.022Z,3.71
2023-01-28T22:27:01.839Z,3.68
2023-01-28T22:29:29.826Z,3.64
2023-01-28T22:31:57.391Z,3.61
2023-01-28T22:34:25.301Z,3.56
2023-01-28T22:36:53.311Z,3.56
2023-01-28T22:39:41.654Z,3.47
2023-01-28T22:42:23.071Z,3.33
2023-01-28T22:44:50.740Z,3.34
2023-01-28T22:47:19.270Z,3.32
2023-01-28T22:49:46.757Z,3.33
2023-01-28T22:52:14.237Z,3.42
2023-01-28T22:54:42.715Z,3.36
2023-01-28T22:57:10.363Z,3.42
2023-01-28T22:59:41.792Z,3.45
2023-01-28T23:02:10.069Z,3.48
2023-01-28T23:04:37.709Z,3.48
2023-01-28T23:07:05.657Z,3.47
2023-01-28T23:09:35.520Z,3.60
2023-01-28T23:12:03.085Z,3.58
2023-01-28T23:14:49.730Z,3.54
2023-01-28T23:17:37.055Z,3.45
2023-01-28T23:20:23.696Z,3.19
2023-01-28T23:23:10.106Z,2.96
2023-01-28T23:25:38.168Z,3.06
2023-01-28T23:28:06.095Z,3.08
2023-01-28T23:30:34.687Z,3.05
2023-01-28T23:33:03.400Z,3.08
2023-01-28T23:35:32.753Z,3.15
2023-01-28T23:38:00.291Z,3.27
2023-01-28T23:40:28.409Z,3.26
2023-01-28T23:42:56.321Z,3.35
2023-01-28T23:45:24.532Z,3.17
2023-01-28T23:47:52.548Z,3.03
2023-01-28T23:50:21.121Z,2.82
2023-01-28T23:52:49.249Z,2.62
2023-01-28T23:55:17.074Z,2.79
2023-01-28T23:57:44.670Z,2.73
